Time;durP1;ratioP1;P1;durP2;ratioP2;P2;SDS_P1;SDS_P2;PMS_P1;PMS_P2;Temp;Humidity;BMP_temperature;BMP_pressure;BME280_temperature;BME280_humidity;BME280_pressure;Samples;Min_cycle;Max_cycle;Signal;HPM_P1;HPM_P2
2024/04/17 00:00:47;;;;;;;10.75;3.25;;;;;;;;;;5558296;25;20024;-64
2024/04/17 00:03:16;;;;;;;12.85;4.00;;;;;;;;;;5587223;25;20028;-64
2024/04/17 00:05:44;;;;;;;8.65;3.65;;;;;;;;;;5578801;25;20033;-63
2024/04/17 00:08:13;;;;;;;11.05;3.95;;;;;;;;;;5577577;25;20024;-64
2024/04/17 00:10:39;;;;;;;9.82;3.30;;;;;;;;;;5579857;25;20024;-63
2024/04/17 00:13:08;;;;;;;10.38;3.42;;;;;;;;;;5567047;25;20024;-64
2024/04/17 00:15:34;;;;;;;8.23;3.10;;;;;;;;;;5565507;25;20025;-64
2024/04/17 00:18:03;;;;;;;9.55;3.22;;;;;;;;;;5564690;25;20365;-64
2024/04/17 00:20:29;;;;;;;11.70;3.97;;;;;;;;;;5541918;25;20016;-64
2024/04/17 00:23:01;;;;;;;10.77;3.35;;;;;;;;;;5583440;25;20383;-64
2024/04/17 00:25:27;;;;;;;8.02;3.38;;;;;;;;;;5572701;25;20371;-63
2024/04/17 00:27:55;;;;;;;7.78;3.35;;;;;;;;;;5576983;25;20064;-63
2024/04/17 00:30:21;;;;;;;10.60;4.32;;;;;;;;;;5579288;25;20024;-64
2024/04/17 00:32:50;;;;;;;12.07;3.90;;;;;;;;;;5563555;25;20028;-64
2024/04/17 00:35:16;;;;;;;10.43;3.67;;;;;;;;;;5572665;25;20025;-65
2024/04/17 00:37:45;;;;;;;13.73;4.22;;;;;;;;;;5573855;25;20387;-64
2024/04/17 00:40:14;;;;;;;10.73;3.75;;;;;;;;;;5565883;25;20031;-64
2024/04/17 00:42:42;;;;;;;11.07;4.20;;;;;;;;;;5564510;25;20025;-64
2024/04/17 00:45:08;;;;;;;9.70;3.95;;;;;;;;;;5566298;25;20029;-64
2024/04/17 00:47:37;;;;;;;11.70;3.92;;;;;;;;;;5577820;25;20028;-64
2024/04/17 00:50:04;;;;;;;9.93;3.80;;;;;;;;;;5580161;25;20020;-63
2024/04/17 00:52:33;;;;;;;7.35;3.35;;;;;;;;;;5578429;25;20032;-64
2024/04/17 00:55:00;;;;;;;13.85;3.83;;;;;;;;;;5591667;25;20020;-64
2024/04/17 00:57:32;;;;;;;9.95;4.22;;;;;;;;;;5598809;25;20489;-64
2024/04/17 00:59:58;;;;;;;8.73;3.78;;;;;;;;;;5589146;25;20033;-63
2024/04/17 01:02:27;;;;;;;8.68;3.75;;;;;;;;;;5567478;25;20032;-64
2024/04/17 01:04:53;;;;;;;9.70;3.95;;;;;;;;;;5579827;25;20028;-64
2024/04/17 01:07:22;;;;;;;9.15;4.22;;;;;;;;;;5564032;25;20040;-64
2024/04/17 01:09:48;;;;;;;11.27;4.20;;;;;;;;;;5592948;25;20477;-64
2024/04/17 01:12:17;;;;;;;10.10;3.90;;;;;;;;;;5586202;25;20380;-64
2024/04/17 01:14:45;;;;;;;9.15;3.47;;;;;;;;;;5590935;25;20021;-64
2024/04/17 01:17:14;;;;;;;8.98;4.22;;;;;;;;;;5572146;25;20028;-63
2024/04/17 01:19:41;;;;;;;10.30;3.63;;;;;;;;;;5580008;25;20028;-62
2024/04/17 01:22:09;;;;;;;8.70;3.70;;;;;;;;;;5580371;25;20028;-63
2024/04/17 01:24:38;;;;;;;9.73;4.15;;;;;;;;;;5583618;25;20036;-64
2024/04/17 01:27:07;;;;;;;6.22;3.65;;;;;;;;;;5577168;25;20037;-63
2024/04/17 01:29:33;;;;;;;8.77;3.60;;;;;;;;;;5589970;25;20028;-63
2024/04/17 01:32:02;;;;;;;9.52;3.70;;;;;;;;;;5571949;25;20037;-63
2024/04/17 01:34:28;;;;;;;12.40;3.78;;;;;;;;;;5564295;25;20025;-64
2024/04/17 01:36:56;;;;;;;7.55;3.88;;;;;;;;;;5588182;25;20032;-64
2024/04/17 01:39:23;;;;;;;7.43;3.35;;;;;;;;;;5601464;25;20024;-64
2024/04/17 01:41:54;;;;;;;8.80;3.90;;;;;;;;;;5577912;25;20040;-64
2024/04/17 01:44:22;;;;;;;10.35;4.35;;;;;;;;;;5565803;25;20024;-63
2024/04/17 01:46:51;;;;;;;7.80;3.45;;;;;;;;;;5564434;25;20032;-64
2024/04/17 01:49:17;;;;;;;6.73;3.97;;;;;;;;;;5564661;25;20024;-64
2024/04/17 01:51:46;;;;;;;9.30;4.15;;;;;;;;;;5577329;25;20027;-64
2024/04/17 01:54:12;;;;;;;9.38;3.72;;;;;;;;;;5575128;25;20029;-63
2024/04/17 01:56:41;;;;;;;8.90;3.60;;;;;;;;;;5581423;25;20036;-63
2024/04/17 01:59:09;;;;;;;13.30;4.25;;;;;;;;;;5578267;25;20329;-64
2024/04/17 02:01:38;;;;;;;8.07;3.53;;;;;;;;;;5571081;25;20369;-63
2024/04/17 02:04:04;;;;;;;10.55;4.47;;;;;;;;;;5568657;25;20032;-63
2024/04/17 02:06:33;;;;;;;8.13;3.78;;;;;;;;;;5591734;25;20489;-63
2024/04/17 02:09:00;;;;;;;9.45;4.00;;;;;;;;;;5573997;25;20000;-63
2024/04/17 02:11:29;;;;;;;11.25;4.18;;;;;;;;;;5590062;25;20032;-63
2024/04/17 02:13:55;;;;;;;9.18;4.05;;;;;;;;;;5571333;25;20043;-63
2024/04/17 02:16:27;;;;;;;12.27;3.95;;;;;;;;;;5565481;25;20848;-63
2024/04/17 02:18:53;;;;;;;11.35;4.00;;;;;;;;;;5579859;25;20046;-63
2024/04/17 02:21:21;;;;;;;12.55;4.38;;;;;;;;;;5574539;25;20037;-62
2024/04/17 02:23:48;;;;;;;12.02;5.00;;;;;;;;;;5570787;25;20377;-63
2024/04/17 02:26:16;;;;;;;11.70;4.43;;;;;;;;;;5566958;25;20043;-63
2024/04/17 02:28:42;;;;;;;11.57;4.75;;;;;;;;;;5567430;25;20024;-63
2024/04/17 02:31:11;;;;;;;12.65;4.80;;;;;;;;;;5561053;25;20036;-62
2024/04/17 02:33:40;;;;;;;8.00;4.70;;;;;;;;;;5579383;25;20052;-61
2024/04/17 02:36:09;;;;;;;9.45;4.47;;;;;;;;;;5584733;25;20029;-63
2024/04/17 02:38:35;;;;;;;7.78;4.22;;;;;;;;;;5570002;25;20028;-62
2024/04/17 02:41:04;;;;;;;9.00;4.30;;;;;;;;;;5564645;25;20040;-62
2024/04/17 02:43:30;;;;;;;11.75;4.10;;;;;;;;;;5572782;25;20035;-62
2024/04/17 02:45:59;;;;;;;10.50;4.78;;;;;;;;;;5586209;25;20068;-63
2024/04/17 02:48:25;;;;;;;11.35;4.82;;;;;;;;;;5572756;25;20039;-62
2024/04/17 02:50:56;;;;;;;9.75;3.92;;;;;;;;;;5581203;25;20041;-62
2024/04/17 02:53:22;;;;;;;9.93;4.60;;;;;;;;;;5573091;25;20052;-62
2024/04/17 02:55:51;;;;;;;10.90;4.82;;;;;;;;;;5572448;25;20506;-63
2024/04/17 02:58:17;;;;;;;9.32;4.80;;;;;;;;;;5568431;25;20028;-62
2024/04/17 03:00:46;;;;;;;16.73;6.00;;;;;;;;;;5559713;25;20042;-63
2024/04/17 03:03:12;;;;;;;12.90;5.30;;;;;;;;;;5533436;25;20038;-62
2024/04/17 03:05:41;;;;;;;11.40;4.95;;;;;;;;;;5539583;25;20037;-62
2024/04/17 03:08:09;;;;;;;14.10;5.18;;;;;;;;;;5543148;25;20036;-62
2024/04/17 03:10:38;;;;;;;9.27;4.75;;;;;;;;;;5536945;25;20033;-62
2024/04/17 03:13:04;;;;;;;15.80;7.03;;;;;;;;;;5542295;25;20025;-61
2024/04/17 03:15:36;;;;;;;17.65;8.23;;;;;;;;;;5539154;25;20371;-61
2024/04/17 03:18:02;;;;;;;16.05;6.10;;;;;;;;;;5526455;25;20041;-62
2024/04/17 03:20:34;;;;;;;12.93;6.03;;;;;;;;;;5548535;25;20486;-62
2024/04/17 03:23:00;;;;;;;11.55;6.65;;;;;;;;;;5543080;25;20033;-62
2024/04/17 03:25:32;;;;;;;13.55;5.60;;;;;;;;;;5531973;25;20038;-62
2024/04/17 03:27:58;;;;;;;11.80;6.03;;;;;;;;;;5539966;25;20034;-62
2024/04/17 03:30:26;;;;;;;16.52;6.13;;;;;;;;;;5545423;25;20032;-62
2024/04/17 03:32:52;;;;;;;12.38;6.00;;;;;;;;;;5537640;25;20025;-62
2024/04/17 03:35:21;;;;;;;12.80;5.78;;;;;;;;;;5542624;25;20025;-63
2024/04/17 03:37:50;;;;;;;12.82;6.28;;;;;;;;;;5528357;26;20371;-62
2024/04/17 03:40:19;;;;;;;15.82;6.45;;;;;;;;;;5528054;26;20032;-62
2024/04/17 03:42:50;;;;;;;13.52;6.88;;;;;;;;;;5535471;25;20045;-62
2024/04/17 03:45:19;;;;;;;14.50;7.15;;;;;;;;;;5535497;25;20032;-61
2024/04/17 03:47:47;;;;;;;11.68;7.15;;;;;;;;;;5533507;25;20017;-62
2024/04/17 03:50:14;;;;;;;11.40;7.13;;;;;;;;;;5530662;25;20029;-61
2024/04/17 03:52:42;;;;;;;12.07;7.85;;;;;;;;;;5549050;25;20029;-61
2024/04/17 03:55:09;;;;;;;13.20;8.15;;;;;;;;;;5531987;25;20490;-62
2024/04/17 03:57:37;;;;;;;14.32;7.20;;;;;;;;;;5528623;25;20021;-61
2024/04/17 04:00:07;;;;;;;14.32;8.55;;;;;;;;;;5528249;26;20378;-62
2024/04/17 04:02:36;;;;;;;;;;;;;;;;;;5563250;25;20037;-62
2024/04/17 04:05:02;;;;;;;14.63;9.02;;;;;;;;;;5570477;25;19952;-62
2024/04/17 04:07:30;;;;;;;19.20;9.95;;;;;;;;;;5581992;25;20482;-62
2024/04/17 04:09:56;;;;;;;23.05;10.88;;;;;;;;;;5570267;25;20377;-62
2024/04/17 04:12:25;;;;;;;15.45;10.30;;;;;;;;;;5599480;25;20024;-62
2024/04/17 04:14:51;;;;;;;16.88;9.93;;;;;;;;;;5603031;25;20040;-62
2024/04/17 04:17:23;;;;;;;20.02;11.20;;;;;;;;;;5595177;25;20017;-62
2024/04/17 04:19:49;;;;;;;22.90;9.88;;;;;;;;;;5574766;25;20021;-62
2024/04/17 04:22:18;;;;;;;17.95;10.38;;;;;;;;;;5591271;25;20025;-62
2024/04/17 04:24:44;;;;;;;18.55;10.20;;;;;;;;;;5566218;25;20021;-62
2024/04/17 04:27:12;;;;;;;19.00;10.95;;;;;;;;;;5564692;25;20033;-62
2024/04/17 04:29:38;;;;;;;22.77;12.98;;;;;;;;;;5564897;25;20021;-62
2024/04/17 04:32:07;;;;;;;16.98;10.23;;;;;;;;;;5571528;25;20490;-62
2024/04/17 04:34:36;;;;;;;17.67;10.82;;;;;;;;;;5579204;25;20041;-62
2024/04/17 04:37:05;;;;;;;18.60;12.25;;;;;;;;;;5574409;25;20024;-62
2024/04/17 04:39:31;;;;;;;21.80;12.52;;;;;;;;;;5564904;25;20037;-62
2024/04/17 04:42:00;;;;;;;19.17;10.95;;;;;;;;;;5569743;25;20518;-62
2024/04/17 04:44:26;;;;;;;18.30;12.43;;;;;;;;;;5567034;25;20036;-62
2024/04/17 04:46:56;;;;;;;19.92;13.95;;;;;;;;;;5564204;25;20369;-62
2024/04/17 04:49:22;;;;;;;21.65;12.98;;;;;;;;;;5575698;25;20627;-62
2024/04/17 04:51:54;;;;;;;28.63;16.05;;;;;;;;;;5571967;25;20041;-62
2024/04/17 04:54:20;;;;;;;24.67;15.27;;;;;;;;;;5564342;25;20029;-62
2024/04/17 04:56:48;;;;;;;26.58;16.17;;;;;;;;;;5571889;25;20028;-62
2024/04/17 04:59:15;;;;;;;38.30;19.58;;;;;;;;;;5598117;25;20028;-62
2024/04/17 05:01:43;;;;;;;27.10;17.20;;;;;;;;;;5569813;25;20032;-62
2024/04/17 05:04:09;;;;;;;29.10;18.73;;;;;;;;;;5574605;25;20028;-62
2024/04/17 05:06:38;;;;;;;24.67;16.45;;;;;;;;;;5566655;25;20498;-62
2024/04/17 05:09:07;;;;;;;26.43;16.47;;;;;;;;;;5564177;25;20025;-62
2024/04/17 05:11:36;;;;;;;31.85;19.25;;;;;;;;;;5585788;25;20368;-62
2024/04/17 05:14:02;;;;;;;36.88;20.60;;;;;;;;;;5579571;25;20028;-63
2024/04/17 05:16:31;;;;;;;25.30;17.23;;;;;;;;;;5600618;25;20028;-62
2024/04/17 05:18:57;;;;;;;28.93;17.67;;;;;;;;;;5596252;25;20017;-62
2024/04/17 05:21:26;;;;;;;29.35;18.40;;;;;;;;;;5568541;25;20485;-62
2024/04/17 05:23:52;;;;;;;29.10;18.90;;;;;;;;;;5584630;25;20028;-62
2024/04/17 05:26:23;;;;;;;32.83;20.25;;;;;;;;;;5573243;25;20737;-62
2024/04/17 05:28:49;;;;;;;29.00;19.27;;;;;;;;;;5569560;25;20032;-62
2024/04/17 05:31:18;;;;;;;36.00;20.67;;;;;;;;;;5587754;25;20036;-62
2024/04/17 05:33:46;;;;;;;30.08;20.15;;;;;;;;;;5590548;25;20028;-62
2024/04/17 05:36:15;;;;;;;34.83;19.83;;;;;;;;;;5582895;25;20472;-60
2024/04/17 05:38:41;;;;;;;33.83;21.05;;;;;;;;;;5575043;25;20394;-62
2024/04/17 05:41:10;;;;;;;28.85;19.58;;;;;;;;;;5580293;25;20516;-62
2024/04/17 05:43:39;;;;;;;34.80;20.92;;;;;;;;;;5588390;25;20033;-62
2024/04/17 05:46:08;;;;;;;34.35;20.20;;;;;;;;;;5586606;25;20028;-62
2024/04/17 05:48:34;;;;;;;28.58;18.55;;;;;;;;;;5565297;25;20091;-62
2024/04/17 05:51:03;;;;;;;29.60;18.85;;;;;;;;;;5570176;25;20032;-62
2024/04/17 05:53:29;;;;;;;28.58;17.63;;;;;;;;;;5576077;25;20113;-62
2024/04/17 05:55:58;;;;;;;27.13;18.38;;;;;;;;;;5568975;25;20410;-62
2024/04/17 05:58:24;;;;;;;30.50;18.17;;;;;;;;;;5570303;25;20021;-61
2024/04/17 06:00:56;;;;;;;29.30;18.13;;;;;;;;;;5560152;25;20041;-61
2024/04/17 06:03:22;;;;;;;29.95;18.27;;;;;;;;;;5553894;25;20022;-62
2024/04/17 06:05:50;;;;;;;30.48;18.45;;;;;;;;;;5561137;25;20486;-61
2024/04/17 06:08:16;;;;;;;24.48;16.90;;;;;;;;;;5562372;25;20160;-61
2024/04/17 06:10:46;;;;;;;29.83;17.70;;;;;;;;;;5551576;25;20029;-61
2024/04/17 06:13:12;;;;;;;26.48;17.17;;;;;;;;;;5539018;25;20377;-62
2024/04/17 06:15:41;;;;;;;25.75;16.52;;;;;;;;;;5547230;25;20033;-61
2024/04/17 06:18:10;;;;;;;25.95;16.08;;;;;;;;;;5548343;25;20024;-62
2024/04/17 06:20:38;;;;;;;24.50;15.88;;;;;;;;;;5527778;25;20027;-62
2024/04/17 06:23:04;;;;;;;22.05;15.48;;;;;;;;;;5534375;25;20028;-62
2024/04/17 06:25:33;;;;;;;27.27;15.30;;;;;;;;;;5539507;25;20034;-62
2024/04/17 06:27:59;;;;;;;23.80;14.75;;;;;;;;;;5560921;25;20024;-62
2024/04/17 06:30:28;;;;;;;23.17;14.88;;;;;;;;;;5557503;25;20024;-62
2024/04/17 06:32:54;;;;;;;24.50;13.98;;;;;;;;;;5561921;25;20029;-62
2024/04/17 06:35:25;;;;;;;17.15;12.07;;;;;;;;;;5555958;25;20028;-62
2024/04/17 06:37:52;;;;;;;19.52;11.95;;;;;;;;;;5554201;25;20049;-62
2024/04/17 06:40:20;;;;;;;16.15;10.13;;;;;;;;;;5558514;25;20029;-62
2024/04/17 06:42:46;;;;;;;20.05;10.93;;;;;;;;;;5557298;25;20029;-62
2024/04/17 06:45:15;;;;;;;16.77;10.57;;;;;;;;;;5557299;25;20032;-62
2024/04/17 06:47:43;;;;;;;21.35;12.13;;;;;;;;;;5561395;25;20021;-61
2024/04/17 06:50:12;;;;;;;15.77;9.90;;;;;;;;;;5558265;25;20036;-62
2024/04/17 06:52:41;;;;;;;13.80;8.48;;;;;;;;;;5557695;25;20374;-62
2024/04/17 06:55:09;;;;;;;20.27;8.55;;;;;;;;;;5556640;25;20040;-61
2024/04/17 06:57:36;;;;;;;13.98;8.35;;;;;;;;;;5554572;25;20021;-62
2024/04/17 07:00:04;;;;;;;12.63;8.40;;;;;;;;;;5555407;25;20037;-62
2024/04/17 07:02:31;;;;;;;14.10;8.10;;;;;;;;;;5559941;25;20028;-62
2024/04/17 07:04:59;;;;;;;13.85;7.75;;;;;;;;;;5565321;25;20413;-62
2024/04/17 07:07:25;;;;;;;10.20;6.80;;;;;;;;;;5558052;25;20510;-61
2024/04/17 07:09:57;;;;;;;14.60;8.00;;;;;;;;;;5555015;25;20011;-62
2024/04/17 07:12:23;;;;;;;14.27;7.55;;;;;;;;;;5557456;25;20029;-61
2024/04/17 07:14:52;;;;;;;14.95;7.70;;;;;;;;;;5542499;25;20029;-61
2024/04/17 07:17:18;;;;;;;14.00;7.28;;;;;;;;;;5560539;25;20025;-62
2024/04/17 07:19:46;;;;;;;13.95;8.00;;;;;;;;;;5559304;25;20629;-61
2024/04/17 07:22:13;;;;;;;14.48;6.95;;;;;;;;;;5561715;25;20490;-62
2024/04/17 07:24:41;;;;;;;14.23;6.43;;;;;;;;;;5553968;25;20366;-62
2024/04/17 07:27:10;;;;;;;10.52;5.80;;;;;;;;;;5557992;25;20029;-61
2024/04/17 07:29:39;;;;;;;10.73;5.55;;;;;;;;;;5556055;25;20024;-61
2024/04/17 07:32:05;;;;;;;6.80;4.68;;;;;;;;;;5558680;25;20477;-62
2024/04/17 07:34:34;;;;;;;9.60;5.50;;;;;;;;;;5553058;25;20025;-63
2024/04/17 07:37:00;;;;;;;9.77;5.20;;;;;;;;;;5559129;25;20032;-63
2024/04/17 07:39:29;;;;;;;9.68;5.57;;;;;;;;;;5561342;25;20037;-62
2024/04/17 07:41:55;;;;;;;10.25;5.80;;;;;;;;;;5554774;25;20400;-63
2024/04/17 07:44:27;;;;;;;8.13;4.68;;;;;;;;;;5558269;25;20102;-63
2024/04/17 07:46:53;;;;;;;6.55;4.10;;;;;;;;;;5554011;25;20031;-63
2024/04/17 07:49:21;;;;;;;9.00;5.03;;;;;;;;;;5554535;25;20049;-63
2024/04/17 07:51:48;;;;;;;6.65;3.40;;;;;;;;;;5555588;25;20025;-62
2024/04/17 07:54:16;;;;;;;3.55;2.83;;;;;;;;;;5557082;25;20033;-63
2024/04/17 07:56:42;;;;;;;4.45;2.60;;;;;;;;;;5556614;25;20032;-63
2024/04/17 07:59:11;;;;;;;4.43;2.28;;;;;;;;;;5556619;25;20194;-63
2024/04/17 08:01:40;;;;;;;4.22;2.20;;;;;;;;;;5538090;25;20029;-63
2024/04/17 08:04:09;;;;;;;4.88;2.20;;;;;;;;;;5521281;25;20040;-64
2024/04/17 08:06:35;;;;;;;3.50;2.22;;;;;;;;;;5529937;25;20033;-64
2024/04/17 08:09:07;;;;;;;3.53;2.45;;;;;;;;;;5534314;25;20024;-64
2024/04/17 08:11:35;;;;;;;4.10;2.33;;;;;;;;;;5523322;25;20025;-64
2024/04/17 08:14:04;;;;;;;3.92;2.10;;;;;;;;;;5524994;25;20041;-64
2024/04/17 08:16:30;;;;;;;3.78;2.33;;;;;;;;;;5534777;25;20025;-64
2024/04/17 08:19:02;;;;;;;3.80;2.17;;;;;;;;;;5534438;25;20068;-64
2024/04/17 08:21:28;;;;;;;3.95;2.28;;;;;;;;;;5537441;25;20463;-64
2024/04/17 08:23:57;;;;;;;5.30;2.13;;;;;;;;;;5535777;25;20029;-63
2024/04/17 08:26:24;;;;;;;4.72;2.25;;;;;;;;;;5534923;25;20029;-64
2024/04/17 08:28:53;;;;;;;3.55;1.98;;;;;;;;;;5532405;25;20029;-64
2024/04/17 08:31:19;;;;;;;4.03;2.15;;;;;;;;;;5524755;25;20022;-64
2024/04/17 08:33:47;;;;;;;2.80;1.88;;;;;;;;;;5524581;25;20029;-64
2024/04/17 08:36:16;;;;;;;2.63;1.95;;;;;;;;;;5524864;25;20475;-64
2024/04/17 08:38:45;;;;;;;3.60;2.20;;;;;;;;;;5523042;25;20624;-64
2024/04/17 08:41:11;;;;;;;3.88;2.38;;;;;;;;;;5524337;25;20029;-64
2024/04/17 08:43:40;;;;;;;4.20;2.30;;;;;;;;;;5523369;25;20038;-62
2024/04/17 08:46:06;;;;;;;3.22;2.40;;;;;;;;;;5534590;25;20076;-64
2024/04/17 08:48:35;;;;;;;4.18;2.63;;;;;;;;;;5534347;25;20407;-63
2024/04/17 08:51:03;;;;;;;4.68;2.83;;;;;;;;;;5539938;25;20025;-63
2024/04/17 08:53:34;;;;;;;4.38;2.63;;;;;;;;;;5540079;25;20029;-63
2024/04/17 08:56:00;;;;;;;3.65;2.88;;;;;;;;;;5541220;25;20381;-65
2024/04/17 08:58:29;;;;;;;4.07;3.30;;;;;;;;;;5535521;25;20033;-64
2024/04/17 09:00:55;;;;;;;5.13;3.00;;;;;;;;;;5541940;25;20031;-64
2024/04/17 09:03:25;;;;;;;5.13;2.63;;;;;;;;;;5575889;25;20028;-64
2024/04/17 09:05:52;;;;;;;4.68;2.80;;;;;;;;;;5582309;25;20032;-64
2024/04/17 09:08:21;;;;;;;5.85;3.15;;;;;;;;;;5577806;25;20497;-64
2024/04/17 09:10:50;;;;;;;3.95;2.85;;;;;;;;;;5573351;25;20036;-67
2024/04/17 09:13:19;;;;;;;5.07;3.50;;;;;;;;;;5579989;25;20479;-67
2024/04/17 09:15:45;;;;;;;4.35;3.47;;;;;;;;;;5590843;25;20032;-67
2024/04/17 09:18:14;;;;;;;3.75;3.38;;;;;;;;;;5580161;25;20053;-67
2024/04/17 09:20:42;;;;;;;5.35;3.60;;;;;;;;;;5588809;25;20490;-67
2024/04/17 09:23:11;;;;;;;4.38;3.58;;;;;;;;;;5576509;25;20024;-66
2024/04/17 09:25:37;;;;;;;4.40;3.40;;;;;;;;;;5575371;25;20027;-67
2024/04/17 09:28:11;;;;;;;5.97;3.55;;;;;;;;;;5578883;25;20562;-67
2024/04/17 09:30:41;;;;;;;5.53;3.78;;;;;;;;;;5582618;25;20369;-67
2024/04/17 09:33:10;;;;;;;6.45;4.38;;;;;;;;;;5581463;25;20020;-67
2024/04/17 09:35:37;;;;;;;4.80;3.42;;;;;;;;;;5569132;25;20481;-67
2024/04/17 09:38:11;;;;;;;4.30;2.80;;;;;;;;;;5577924;25;20027;-66
2024/04/17 09:40:37;;;;;;;3.92;2.83;;;;;;;;;;5577941;25;20374;-66
2024/04/17 09:43:08;;;;;;;3.30;3.00;;;;;;;;;;5569706;25;20036;-67
2024/04/17 09:45:37;;;;;;;3.30;2.50;;;;;;;;;;5579054;25;20037;-66
2024/04/17 09:48:08;;;;;;;3.30;2.85;;;;;;;;;;5567437;25;20646;-67
2024/04/17 09:50:35;;;;;;;4.13;3.00;;;;;;;;;;5579586;25;20107;-67
2024/04/17 09:53:04;;;;;;;3.80;2.90;;;;;;;;;;5576042;25;20032;-66
2024/04/17 09:55:31;;;;;;;3.85;2.78;;;;;;;;;;5575655;25;20028;-66
2024/04/17 09:58:00;;;;;;;3.28;2.53;;;;;;;;;;5578091;25;20024;-67
2024/04/17 10:00:26;;;;;;;3.50;2.77;;;;;;;;;;5577528;25;20033;-66
2024/04/17 10:02:59;;;;;;;4.03;2.78;;;;;;;;;;5595182;25;20528;-66
2024/04/17 10:05:27;;;;;;;2.70;2.38;;;;;;;;;;5586941;25;20020;-67
2024/04/17 10:07:56;;;;;;;3.25;2.28;;;;;;;;;;5589583;25;20037;-66
2024/04/17 10:10:22;;;;;;;2.50;1.55;;;;;;;;;;5571676;25;20384;-66
2024/04/17 10:12:53;;;;;;;2.50;1.70;;;;;;;;;;5580554;25;20029;-67
2024/04/17 10:15:19;;;;;;;3.00;1.50;;;;;;;;;;5580088;25;20034;-66
2024/04/17 10:17:48;;;;;;;2.95;1.50;;;;;;;;;;5565572;25;20374;-63
2024/04/17 10:20:29;;;;;;;2.72;1.20;;;;;;;;;;5573578;25;20029;-66
2024/04/17 10:23:05;;;;;;;2.97;1.38;;;;;;;;;;5576184;25;20032;-66
2024/04/17 10:25:31;;;;;;;4.60;1.50;;;;;;;;;;5569786;25;20029;-65
2024/04/17 10:28:04;;;;;;;4.07;1.60;;;;;;;;;;5595623;25;20036;-65
2024/04/17 10:30:34;;;;;;;3.70;1.20;;;;;;;;;;5587536;25;20076;-66
2024/04/17 10:33:03;;;;;;;4.00;1.40;;;;;;;;;;5595231;25;20035;-66
2024/04/17 10:35:32;;;;;;;2.67;0.90;;;;;;;;;;5580463;25;20052;-65
2024/04/17 10:38:07;;;;;;;2.75;0.80;;;;;;;;;;5585854;25;20491;-66
2024/04/17 10:40:33;;;;;;;4.18;1.30;;;;;;;;;;5567824;25;20036;-66
2024/04/17 10:43:02;;;;;;;2.90;1.20;;;;;;;;;;5571093;25;21415;-66
2024/04/17 10:45:28;;;;;;;3.10;1.07;;;;;;;;;;5573845;25;20027;-65
2024/04/17 10:48:02;;;;;;;2.60;0.68;;;;;;;;;;5563449;25;20474;-66
2024/04/17 10:50:28;;;;;;;2.25;0.88;;;;;;;;;;5572423;25;20036;-66
2024/04/17 10:53:00;;;;;;;2.97;1.05;;;;;;;;;;5589184;25;20020;-65
2024/04/17 10:55:26;;;;;;;3.22;1.45;;;;;;;;;;5585623;25;20032;-65
2024/04/17 10:57:56;;;;;;;3.58;1.20;;;;;;;;;;5591485;25;20027;-65
2024/04/17 11:00:22;;;;;;;2.55;1.00;;;;;;;;;;5585735;25;20036;-66
2024/04/17 11:02:51;;;;;;;1.75;0.90;;;;;;;;;;5544327;25;20040;-66
2024/04/17 11:05:17;;;;;;;2.73;0.90;;;;;;;;;;5546216;25;20040;-66
2024/04/17 11:07:46;;;;;;;2.60;0.90;;;;;;;;;;5533928;25;20029;-65
2024/04/17 11:10:15;;;;;;;3.30;1.13;;;;;;;;;;5522283;25;20033;-65
2024/04/17 11:12:43;;;;;;;2.08;0.93;;;;;;;;;;5539779;25;20462;-65
2024/04/17 11:15:10;;;;;;;2.38;0.90;;;;;;;;;;5537712;25;20025;-65
2024/04/17 11:17:38;;;;;;;2.45;1.10;;;;;;;;;;5538124;25;20483;-66
2024/04/17 11:20:06;;;;;;;3.10;1.13;;;;;;;;;;5526896;25;20605;-65
2024/04/17 11:22:37;;;;;;;3.05;1.10;;;;;;;;;;5533026;25;20036;-65
2024/04/17 11:25:04;;;;;;;2.65;1.02;;;;;;;;;;5537660;25;20032;-66
2024/04/17 11:27:35;;;;;;;3.10;1.25;;;;;;;;;;5537968;25;20050;-65
2024/04/17 11:30:02;;;;;;;3.78;1.10;;;;;;;;;;5544155;25;20377;-65
2024/04/17 11:32:31;;;;;;;2.50;1.00;;;;;;;;;;5527739;25;20029;-66
2024/04/17 11:34:57;;;;;;;4.47;1.20;;;;;;;;;;5528294;25;20131;-63
2024/04/17 11:37:25;;;;;;;3.60;1.10;;;;;;;;;;5543130;25;20048;-65
2024/04/17 11:39:52;;;;;;;3.53;1.00;;;;;;;;;;5526658;25;20029;-65
2024/04/17 11:42:21;;;;;;;3.10;1.10;;;;;;;;;;5520957;25;20376;-67
2024/04/17 11:44:50;;;;;;;3.22;1.10;;;;;;;;;;5552422;25;20033;-65
2024/04/17 11:47:19;;;;;;;5.60;1.88;;;;;;;;;;5543432;25;20025;-66
2024/04/17 11:49:45;;;;;;;4.25;1.80;;;;;;;;;;5540681;25;20032;-65
2024/04/17 11:52:15;;;;;;;4.15;1.67;;;;;;;;;;5526617;25;20475;-66
2024/04/17 11:54:41;;;;;;;5.40;1.40;;;;;;;;;;5525335;25;20042;-66
2024/04/17 11:57:10;;;;;;;3.35;0.90;;;;;;;;;;5528167;25;20104;-65
2024/04/17 11:59:36;;;;;;;4.10;1.00;;;;;;;;;;5543208;25;20497;-66
2024/04/17 12:02:07;;;;;;;3.03;0.98;;;;;;;;;;5539351;25;20468;-64
2024/04/17 12:04:34;;;;;;;4.60;1.42;;;;;;;;;;5527531;25;20029;-63
2024/04/17 12:07:03;;;;;;;2.55;1.10;;;;;;;;;;5531630;25;20032;-63
2024/04/17 12:09:29;;;;;;;3.30;1.30;;;;;;;;;;5533328;25;20037;-62
2024/04/17 12:11:58;;;;;;;3.88;1.25;;;;;;;;;;5534281;25;20028;-64
2024/04/17 12:14:24;;;;;;;5.50;1.40;;;;;;;;;;5535019;25;20060;-64
2024/04/17 12:16:53;;;;;;;3.53;1.15;;;;;;;;;;5531835;25;20012;-63
2024/04/17 12:19:22;;;;;;;4.85;1.20;;;;;;;;;;5535096;25;20040;-63
2024/04/17 12:21:50;;;;;;;4.00;1.42;;;;;;;;;;5538727;25;20014;-63
2024/04/17 12:24:19;;;;;;;4.10;1.20;;;;;;;;;;5527382;25;20016;-62
2024/04/17 12:26:54;;;;;;;4.78;1.80;;;;;;;;;;5537308;25;20044;-63
2024/04/17 12:29:23;;;;;;;3.80;1.25;;;;;;;;;;5528602;25;20048;-63
2024/04/17 12:31:52;;;;;;;3.92;1.27;;;;;;;;;;5531875;25;20016;-63
2024/04/17 12:34:18;;;;;;;3.40;1.33;;;;;;;;;;5535890;25;20366;-62
2024/04/17 12:36:49;;;;;;;3.53;1.25;;;;;;;;;;5524974;25;20359;-63
2024/04/17 12:39:18;;;;;;;2.85;1.40;;;;;;;;;;5531053;25;20001;-63
2024/04/17 12:41:47;;;;;;;2.50;1.60;;;;;;;;;;5535796;25;20025;-62
2024/04/17 12:44:15;;;;;;;3.07;1.53;;;;;;;;;;5526401;25;20961;-62
2024/04/17 12:46:44;;;;;;;3.30;1.53;;;;;;;;;;5541647;25;20033;-63
2024/04/17 12:49:13;;;;;;;3.78;1.50;;;;;;;;;;5536788;25;20402;-61
2024/04/17 12:51:42;;;;;;;2.53;1.10;;;;;;;;;;5525830;25;20041;-63
2024/04/17 12:54:13;;;;;;;3.88;1.45;;;;;;;;;;5539282;25;20035;-64
2024/04/17 12:56:39;;;;;;;2.95;1.02;;;;;;;;;;5527729;25;20033;-65
2024/04/17 12:59:09;;;;;;;3.58;1.20;;;;;;;;;;5551734;25;20539;-68
2024/04/17 13:01:35;;;;;;;4.38;1.30;;;;;;;;;;5556765;25;20025;-68
2024/04/17 13:04:04;;;;;;;3.25;1.30;;;;;;;;;;5594127;25;20035;-66
2024/04/17 13:06:30;;;;;;;5.13;1.55;;;;;;;;;;5588591;25;20020;-66
2024/04/17 13:08:59;;;;;;;3.22;1.40;;;;;;;;;;5598428;25;20024;-69
2024/04/17 13:11:28;;;;;;;2.25;1.23;;;;;;;;;;5585505;25;20023;-67
2024/04/17 13:13:57;;;;;;;2.45;0.85;;;;;;;;;;5576483;25;20028;-68
2024/04/17 13:16:23;;;;;;;3.10;1.23;;;;;;;;;;5567125;25;20040;-66
2024/04/17 13:18:52;;;;;;;4.28;1.50;;;;;;;;;;5579028;25;20028;-65
2024/04/17 13:21:18;;;;;;;2.30;1.30;;;;;;;;;;5585320;25;20036;-66
2024/04/17 13:23:47;;;;;;;2.35;1.27;;;;;;;;;;5598662;25;20037;-66
2024/04/17 13:26:13;;;;;;;3.42;1.30;;;;;;;;;;5591196;25;20033;-67
2024/04/17 13:28:45;;;;;;;2.20;1.40;;;;;;;;;;5588709;25;20037;-67
2024/04/17 13:31:11;;;;;;;2.72;1.42;;;;;;;;;;5571192;25;20043;-67
2024/04/17 13:33:40;;;;;;;2.88;1.50;;;;;;;;;;5588390;25;20037;-66
2024/04/17 13:36:06;;;;;;;2.92;1.65;;;;;;;;;;5570829;25;20160;-67
2024/04/17 13:38:35;;;;;;;3.58;1.55;;;;;;;;;;5580182;25;20039;-64
2024/04/17 13:41:02;;;;;;;2.40;1.48;;;;;;;;;;5567213;25;20599;-65
2024/04/17 13:43:31;;;;;;;2.80;1.88;;;;;;;;;;5575212;25;20036;-64
2024/04/17 13:46:05;;;;;;;3.20;1.20;;;;;;;;;;5575751;25;20035;-66
2024/04/17 13:48:34;;;;;;;2.85;1.30;;;;;;;;;;5576053;25;20024;-65
2024/04/17 13:51:00;;;;;;;1.92;1.08;;;;;;;;;;5576460;25;20025;-67
2024/04/17 13:53:29;;;;;;;3.08;1.40;;;;;;;;;;5583805;25;20023;-56
2024/04/17 13:55:56;;;;;;;4.80;1.23;;;;;;;;;;5591503;25;20512;-66
2024/04/17 13:58:26;;;;;;;3.70;1.20;;;;;;;;;;5580129;25;21394;-67
2024/04/17 14:00:52;;;;;;;2.60;1.00;;;;;;;;;;5584213;25;20028;-67
2024/04/17 14:03:24;;;;;;;1.83;0.90;;;;;;;;;;5572305;25;20048;-67
2024/04/17 14:05:50;;;;;;;2.05;0.95;;;;;;;;;;5585340;25;20068;-67
2024/04/17 14:08:19;;;;;;;2.00;0.98;;;;;;;;;;5589225;25;20768;-68
2024/04/17 14:10:46;;;;;;;1.90;1.02;;;;;;;;;;5574520;25;20446;-68
2024/04/17 14:13:14;;;;;;;1.75;0.82;;;;;;;;;;5579627;25;20039;-68
2024/04/17 14:15:41;;;;;;;1.33;0.83;;;;;;;;;;5568687;25;20024;-68
2024/04/17 14:18:10;;;;;;;3.30;1.00;;;;;;;;;;5562718;25;20373;-67
2024/04/17 14:20:38;;;;;;;1.60;0.80;;;;;;;;;;5579725;25;20032;-68
2024/04/17 14:23:07;;;;;;;1.98;0.80;;;;;;;;;;5564516;25;20045;-68
2024/04/17 14:25:33;;;;;;;1.40;0.70;;;;;;;;;;5566224;25;20028;-70
2024/04/17 14:28:02;;;;;;;2.58;0.90;;;;;;;;;;5565600;25;20048;-68
2024/04/17 14:30:28;;;;;;;2.08;0.50;;;;;;;;;;5574572;25;20036;-67
2024/04/17 14:32:57;;;;;;;2.33;0.90;;;;;;;;;;5552529;25;20008;-68
2024/04/17 14:35:23;;;;;;;1.50;0.73;;;;;;;;;;5554711;25;20414;-67
2024/04/17 14:37:55;;;;;;;2.72;0.70;;;;;;;;;;5556494;25;20010;-64
2024/04/17 14:40:21;;;;;;;1.20;0.70;;;;;;;;;;5556130;25;20919;-67